Terminal Aerodrome Forecast
Issued by NWS Shreveport, LA

Home | Current Version | Previous Version | Text Only | Print | Product List | Glossary On
Versions: 1 2 3 4 5 6 7 8 9 10 11 12 13 14 15 16 17 18 19 20 21 22 23 24 25 26 27 28 29 30
000
FTUS44 KSHV 211153
TAFSHV
TAF
KSHV 211153Z 2112/2212 18005KT P6SM BKN008 OVC015
      TEMPO 2112/2115 OVC004
     FM211500 25008KT P6SM VCSH BKN020
     FM211900 31008KT P6SM VCSH BKN035
     FM220100 33005KT P6SM BKN035
     FM220800 35005KT P6SM BKN015=

USA.gov is the U.S. government's official web portal to all federal, state and local government web resources and services.